sensor_id;sensor_type;location;lat;lon;timestamp;P1;durP1;ratioP1;P2;durP2;ratioP2
7162;SDS011;3623;47.098;15.446;2023-02-21T00:01:28;2.78;;;2.60;;
7162;SDS011;3623;47.098;15.446;2023-02-21T00:04:13;2.60;;;2.40;;
7162;SDS011;3623;47.098;15.446;2023-02-21T00:06:57;2.63;;;2.47;;
7162;SDS011;3623;47.098;15.446;2023-02-21T00:09:43;3.78;;;3.05;;
7162;SDS011;3623;47.098;15.446;2023-02-21T00:12:27;3.75;;;3.45;;
7162;SDS011;3623;47.098;15.446;2023-02-21T00:15:11;3.80;;;3.40;;
7162;SDS011;3623;47.098;15.446;2023-02-21T00:17:56;3.30;;;2.67;;
7162;SDS011;3623;47.098;15.446;2023-02-21T00:20:40;4.78;;;3.22;;
7162;SDS011;3623;47.098;15.446;2023-02-21T00:23:25;2.88;;;2.67;;
7162;SDS011;3623;47.098;15.446;2023-02-21T00:26:10;2.95;;;2.75;;
7162;SDS011;3623;47.098;15.446;2023-02-21T00:29:00;5.55;;;2.60;;
7162;SDS011;3623;47.098;15.446;2023-02-21T00:31:44;2.50;;;2.40;;
7162;SDS011;3623;47.098;15.446;2023-02-21T00:34:29;2.55;;;2.35;;
7162;SDS011;3623;47.098;15.446;2023-02-21T00:37:13;2.80;;;2.60;;
7162;SDS011;3623;47.098;15.446;2023-02-21T00:39:57;4.70;;;2.70;;
7162;SDS011;3623;47.098;15.446;2023-02-21T00:42:43;4.93;;;3.40;;
7162;SDS011;3623;47.098;15.446;2023-02-21T00:45:28;2.70;;;2.50;;
7162;SDS011;3623;47.098;15.446;2023-02-21T00:48:12;3.38;;;3.08;;
7162;SDS011;3623;47.098;15.446;2023-02-21T00:51:02;4.95;;;2.80;;
7162;SDS011;3623;47.098;15.446;2023-02-21T00:53:47;4.43;;;2.78;;
7162;SDS011;3623;47.098;15.446;2023-02-21T00:56:31;4.80;;;2.95;;
7162;SDS011;3623;47.098;15.446;2023-02-21T00:59:17;3.25;;;2.95;;
7162;SDS011;3623;47.098;15.446;2023-02-21T01:02:02;3.65;;;3.25;;
7162;SDS011;3623;47.098;15.446;2023-02-21T01:04:46;2.47;;;2.28;;
7162;SDS011;3623;47.098;15.446;2023-02-21T01:07:31;2.95;;;2.47;;
7162;SDS011;3623;47.098;15.446;2023-02-21T01:10:15;4.68;;;2.80;;
7162;SDS011;3623;47.098;15.446;2023-02-21T01:13:00;3.67;;;2.83;;
7162;SDS011;3623;47.098;15.446;2023-02-21T01:15:46;4.22;;;2.42;;
7162;SDS011;3623;47.098;15.446;2023-02-21T01:18:30;2.92;;;2.72;;
7162;SDS011;3623;47.098;15.446;2023-02-21T01:21:15;6.05;;;2.78;;
7162;SDS011;3623;47.098;15.446;2023-02-21T01:24:01;3.92;;;3.63;;
7162;SDS011;3623;47.098;15.446;2023-02-21T01:26:46;4.57;;;3.42;;
7162;SDS011;3623;47.098;15.446;2023-02-21T01:29:30;4.45;;;2.72;;
7162;SDS011;3623;47.098;15.446;2023-02-21T01:32:16;3.05;;;2.75;;
7162;SDS011;3623;47.098;15.446;2023-02-21T01:35:01;4.88;;;2.85;;
7162;SDS011;3623;47.098;15.446;2023-02-21T01:37:45;4.72;;;3.97;;
7162;SDS011;3623;47.098;15.446;2023-02-21T01:40:29;2.65;;;2.45;;
7162;SDS011;3623;47.098;15.446;2023-02-21T01:43:14;3.47;;;3.17;;
7162;SDS011;3623;47.098;15.446;2023-02-21T01:45:59;3.17;;;2.58;;
7162;SDS011;3623;47.098;15.446;2023-02-21T01:48:45;3.50;;;3.20;;
7162;SDS011;3623;47.098;15.446;2023-02-21T01:51:31;2.72;;;2.30;;
7162;SDS011;3623;47.098;15.446;2023-02-21T01:54:19;2.58;;;2.38;;
7162;SDS011;3623;47.098;15.446;2023-02-21T01:57:05;4.05;;;3.65;;
7162;SDS011;3623;47.098;15.446;2023-02-21T01:59:50;3.72;;;2.92;;
7162;SDS011;3623;47.098;15.446;2023-02-21T02:02:41;3.20;;;2.90;;
7162;SDS011;3623;47.098;15.446;2023-02-21T02:05:34;3.75;;;3.35;;
7162;SDS011;3623;47.098;15.446;2023-02-21T02:08:20;3.28;;;2.97;;
7162;SDS011;3623;47.098;15.446;2023-02-21T02:11:12;3.45;;;3.15;;
7162;SDS011;3623;47.098;15.446;2023-02-21T02:14:12;3.10;;;2.90;;
7162;SDS011;3623;47.098;15.446;2023-02-21T02:16:58;3.45;;;3.15;;
7162;SDS011;3623;47.098;15.446;2023-02-21T02:22:55;3.47;;;3.28;;
7162;SDS011;3623;47.098;15.446;2023-02-21T02:25:49;4.85;;;2.55;;
7162;SDS011;3623;47.098;15.446;2023-02-21T02:28:37;4.70;;;4.25;;
7162;SDS011;3623;47.098;15.446;2023-02-21T02:31:20;5.43;;;2.58;;
7162;SDS011;3623;47.098;15.446;2023-02-21T02:37:11;3.35;;;2.45;;
7162;SDS011;3623;47.098;15.446;2023-02-21T02:39:45;2.45;;;2.10;;
7162;SDS011;3623;47.098;15.446;2023-02-21T02:42:17;4.78;;;3.10;;
7162;SDS011;3623;47.098;15.446;2023-02-21T02:44:52;3.08;;;2.78;;
7162;SDS011;3623;47.098;15.446;2023-02-21T02:47:24;3.20;;;2.75;;
7162;SDS011;3623;47.098;15.446;2023-02-21T02:49:55;4.53;;;2.80;;
7162;SDS011;3623;47.098;15.446;2023-02-21T02:52:25;5.50;;;2.40;;
7162;SDS011;3623;47.098;15.446;2023-02-21T02:54:59;3.83;;;2.63;;
7162;SDS011;3623;47.098;15.446;2023-02-21T02:57:28;2.97;;;2.72;;
7162;SDS011;3623;47.098;15.446;2023-02-21T03:00:02;2.67;;;2.47;;
7162;SDS011;3623;47.098;15.446;2023-02-21T03:02:44;2.80;;;2.60;;
7162;SDS011;3623;47.098;15.446;2023-02-21T03:05:23;2.90;;;2.55;;
7162;SDS011;3623;47.098;15.446;2023-02-21T03:08:07;2.30;;;2.20;;
7162;SDS011;3623;47.098;15.446;2023-02-21T03:10:41;2.95;;;2.50;;
7162;SDS011;3623;47.098;15.446;2023-02-21T03:13:14;2.03;;;1.92;;
7162;SDS011;3623;47.098;15.446;2023-02-21T03:15:47;3.60;;;2.50;;
7162;SDS011;3623;47.098;15.446;2023-02-21T03:18:18;2.70;;;2.50;;
7162;SDS011;3623;47.098;15.446;2023-02-21T03:20:51;2.72;;;2.47;;
7162;SDS011;3623;47.098;15.446;2023-02-21T03:23:25;2.50;;;2.30;;
7162;SDS011;3623;47.098;15.446;2023-02-21T03:25:53;3.00;;;2.80;;
7162;SDS011;3623;47.098;15.446;2023-02-21T03:28:24;2.15;;;2.00;;
7162;SDS011;3623;47.098;15.446;2023-02-21T03:30:52;3.22;;;2.45;;
7162;SDS011;3623;47.098;15.446;2023-02-21T03:33:22;2.85;;;2.60;;
7162;SDS011;3623;47.098;15.446;2023-02-21T03:35:49;8.07;;;2.22;;
7162;SDS011;3623;47.098;15.446;2023-02-21T03:38:18;2.10;;;2.00;;
7162;SDS011;3623;47.098;15.446;2023-02-21T03:40:46;4.68;;;2.08;;
7162;SDS011;3623;47.098;15.446;2023-02-21T03:43:13;3.72;;;2.17;;
7162;SDS011;3623;47.098;15.446;2023-02-21T03:45:40;3.25;;;1.80;;
7162;SDS011;3623;47.098;15.446;2023-02-21T03:48:08;1.70;;;1.60;;
7162;SDS011;3623;47.098;15.446;2023-02-21T03:50:35;3.60;;;2.25;;
7162;SDS011;3623;47.098;15.446;2023-02-21T03:53:02;2.25;;;2.00;;
7162;SDS011;3623;47.098;15.446;2023-02-21T03:55:29;1.77;;;1.67;;
7162;SDS011;3623;47.098;15.446;2023-02-21T03:57:57;4.57;;;1.83;;
7162;SDS011;3623;47.098;15.446;2023-02-21T04:00:24;4.20;;;2.13;;
7162;SDS011;3623;47.098;15.446;2023-02-21T04:02:52;1.77;;;1.67;;
7162;SDS011;3623;47.098;15.446;2023-02-21T04:05:19;1.77;;;1.67;;
7162;SDS011;3623;47.098;15.446;2023-02-21T04:07:46;1.63;;;1.30;;
7162;SDS011;3623;47.098;15.446;2023-02-21T04:10:13;1.98;;;1.90;;
7162;SDS011;3623;47.098;15.446;2023-02-21T04:12:40;1.70;;;1.60;;
7162;SDS011;3623;47.098;15.446;2023-02-21T04:15:09;6.57;;;1.80;;
7162;SDS011;3623;47.098;15.446;2023-02-21T04:17:37;2.00;;;1.90;;
7162;SDS011;3623;47.098;15.446;2023-02-21T04:20:05;1.80;;;1.70;;
7162;SDS011;3623;47.098;15.446;2023-02-21T04:22:33;4.72;;;3.75;;
7162;SDS011;3623;47.098;15.446;2023-02-21T04:25:00;2.33;;;2.13;;
7162;SDS011;3623;47.098;15.446;2023-02-21T04:27:27;2.95;;;2.00;;
7162;SDS011;3623;47.098;15.446;2023-02-21T04:29:54;5.18;;;3.55;;
7162;SDS011;3623;47.098;15.446;2023-02-21T04:32:23;2.22;;;2.00;;
7162;SDS011;3623;47.098;15.446;2023-02-21T04:34:51;4.85;;;2.42;;
7162;SDS011;3623;47.098;15.446;2023-02-21T04:37:18;3.10;;;2.53;;
7162;SDS011;3623;47.098;15.446;2023-02-21T04:39:45;1.77;;;1.67;;
7162;SDS011;3623;47.098;15.446;2023-02-21T04:42:13;2.10;;;1.55;;
7162;SDS011;3623;47.098;15.446;2023-02-21T04:44:40;4.15;;;1.95;;
7162;SDS011;3623;47.098;15.446;2023-02-21T04:47:07;2.92;;;1.92;;
7162;SDS011;3623;47.098;15.446;2023-02-21T04:49:35;3.25;;;2.40;;
7162;SDS011;3623;47.098;15.446;2023-02-21T04:52:02;3.20;;;2.40;;
7162;SDS011;3623;47.098;15.446;2023-02-21T04:54:30;4.00;;;2.15;;
7162;SDS011;3623;47.098;15.446;2023-02-21T04:56:57;3.13;;;2.30;;
7162;SDS011;3623;47.098;15.446;2023-02-21T04:59:24;4.15;;;2.47;;
7162;SDS011;3623;47.098;15.446;2023-02-21T05:01:51;6.28;;;1.90;;
7162;SDS011;3623;47.098;15.446;2023-02-21T05:04:18;2.92;;;2.15;;
7162;SDS011;3623;47.098;15.446;2023-02-21T05:06:47;2.20;;;1.95;;
7162;SDS011;3623;47.098;15.446;2023-02-21T05:09:14;2.72;;;2.53;;
7162;SDS011;3623;47.098;15.446;2023-02-21T05:11:41;2.58;;;2.05;;
7162;SDS011;3623;47.098;15.446;2023-02-21T05:14:08;2.50;;;1.90;;
7162;SDS011;3623;47.098;15.446;2023-02-21T05:16:35;3.83;;;1.90;;
7162;SDS011;3623;47.098;15.446;2023-02-21T05:19:02;1.90;;;1.80;;
7162;SDS011;3623;47.098;15.446;2023-02-21T05:21:32;2.25;;;2.15;;
7162;SDS011;3623;47.098;15.446;2023-02-21T05:24:03;1.83;;;1.73;;
7162;SDS011;3623;47.098;15.446;2023-02-21T05:26:32;3.65;;;1.98;;
7162;SDS011;3623;47.098;15.446;2023-02-21T05:29:01;2.92;;;2.60;;
7162;SDS011;3623;47.098;15.446;2023-02-21T05:31:28;3.05;;;2.45;;
7162;SDS011;3623;47.098;15.446;2023-02-21T05:33:56;2.45;;;2.35;;
7162;SDS011;3623;47.098;15.446;2023-02-21T05:36:23;4.22;;;3.80;;
7162;SDS011;3623;47.098;15.446;2023-02-21T05:38:51;2.75;;;2.45;;
7162;SDS011;3623;47.098;15.446;2023-02-21T05:41:21;2.30;;;2.20;;
7162;SDS011;3623;47.098;15.446;2023-02-21T05:43:48;2.00;;;1.90;;
7162;SDS011;3623;47.098;15.446;2023-02-21T05:46:16;2.08;;;1.88;;
7162;SDS011;3623;47.098;15.446;2023-02-21T05:48:45;2.63;;;2.10;;
7162;SDS011;3623;47.098;15.446;2023-02-21T05:51:13;2.25;;;1.90;;
7162;SDS011;3623;47.098;15.446;2023-02-21T05:53:40;1.77;;;1.67;;
7162;SDS011;3623;47.098;15.446;2023-02-21T05:56:07;2.55;;;2.35;;
7162;SDS011;3623;47.098;15.446;2023-02-21T05:58:36;2.25;;;2.00;;
7162;SDS011;3623;47.098;15.446;2023-02-21T06:01:03;2.25;;;2.10;;
7162;SDS011;3623;47.098;15.446;2023-02-21T06:03:31;4.65;;;2.83;;
7162;SDS011;3623;47.098;15.446;2023-02-21T06:05:58;6.22;;;4.05;;
7162;SDS011;3623;47.098;15.446;2023-02-21T06:08:25;4.00;;;3.80;;
7162;SDS011;3623;47.098;15.446;2023-02-21T06:10:52;4.18;;;3.20;;
7162;SDS011;3623;47.098;15.446;2023-02-21T06:13:20;3.63;;;2.53;;
7162;SDS011;3623;47.098;15.446;2023-02-21T06:15:49;2.85;;;2.65;;
7162;SDS011;3623;47.098;15.446;2023-02-21T06:18:16;2.15;;;2.05;;
7162;SDS011;3623;47.098;15.446;2023-02-21T06:20:43;2.45;;;2.25;;
7162;SDS011;3623;47.098;15.446;2023-02-21T06:23:10;2.13;;;2.03;;
7162;SDS011;3623;47.098;15.446;2023-02-21T06:25:37;2.00;;;1.90;;
7162;SDS011;3623;47.098;15.446;2023-02-21T06:28:04;3.92;;;2.50;;
7162;SDS011;3623;47.098;15.446;2023-02-21T06:30:32;4.78;;;2.05;;
7162;SDS011;3623;47.098;15.446;2023-02-21T06:33:01;3.58;;;3.25;;
7162;SDS011;3623;47.098;15.446;2023-02-21T06:35:28;2.78;;;2.63;;
7162;SDS011;3623;47.098;15.446;2023-02-21T06:37:55;2.33;;;2.22;;
7162;SDS011;3623;47.098;15.446;2023-02-21T06:40:22;5.70;;;2.33;;
7162;SDS011;3623;47.098;15.446;2023-02-21T06:42:49;7.13;;;2.38;;
7162;SDS011;3623;47.098;15.446;2023-02-21T06:45:16;1.85;;;1.75;;
7162;SDS011;3623;47.098;15.446;2023-02-21T06:47:43;2.20;;;1.95;;
7162;SDS011;3623;47.098;15.446;2023-02-21T06:50:11;2.90;;;2.60;;
7162;SDS011;3623;47.098;15.446;2023-02-21T06:52:38;1.70;;;1.60;;
7162;SDS011;3623;47.098;15.446;2023-02-21T06:55:06;1.95;;;1.80;;
7162;SDS011;3623;47.098;15.446;2023-02-21T06:57:33;3.45;;;1.80;;
7162;SDS011;3623;47.098;15.446;2023-02-21T07:00:00;7.80;;;2.22;;
7162;SDS011;3623;47.098;15.446;2023-02-21T07:02:28;6.60;;;2.67;;
7162;SDS011;3623;47.098;15.446;2023-02-21T07:04:55;3.15;;;2.20;;
7162;SDS011;3623;47.098;15.446;2023-02-21T07:07:23;5.68;;;2.20;;
7162;SDS011;3623;47.098;15.446;2023-02-21T07:09:50;1.98;;;1.55;;
7162;SDS011;3623;47.098;15.446;2023-02-21T07:12:17;5.97;;;3.08;;
7162;SDS011;3623;47.098;15.446;2023-02-21T07:14:44;4.32;;;2.45;;
7162;SDS011;3623;47.098;15.446;2023-02-21T07:17:11;2.78;;;2.50;;
7162;SDS011;3623;47.098;15.446;2023-02-21T07:19:38;2.80;;;1.90;;
7162;SDS011;3623;47.098;15.446;2023-02-21T07:22:06;2.10;;;1.90;;
7162;SDS011;3623;47.098;15.446;2023-02-21T07:24:35;2.13;;;1.95;;
7162;SDS011;3623;47.098;15.446;2023-02-21T07:27:02;1.65;;;1.55;;
7162;SDS011;3623;47.098;15.446;2023-02-21T07:29:29;3.17;;;2.88;;
7162;SDS011;3623;47.098;15.446;2023-02-21T07:31:56;1.90;;;1.80;;
7162;SDS011;3623;47.098;15.446;2023-02-21T07:34:23;2.97;;;2.38;;
7162;SDS011;3623;47.098;15.446;2023-02-21T07:36:50;5.72;;;3.35;;
7162;SDS011;3623;47.098;15.446;2023-02-21T07:39:18;3.00;;;2.70;;
7162;SDS011;3623;47.098;15.446;2023-02-21T07:41:46;2.65;;;2.45;;
7162;SDS011;3623;47.098;15.446;2023-02-21T07:44:13;2.58;;;2.38;;
7162;SDS011;3623;47.098;15.446;2023-02-21T07:46:40;2.45;;;2.25;;
7162;SDS011;3623;47.098;15.446;2023-02-21T07:49:09;2.60;;;2.40;;
7162;SDS011;3623;47.098;15.446;2023-02-21T07:51:36;2.03;;;1.80;;
7162;SDS011;3623;47.098;15.446;2023-02-21T07:54:03;2.13;;;1.98;;
7162;SDS011;3623;47.098;15.446;2023-02-21T07:56:30;2.50;;;2.30;;
7162;SDS011;3623;47.098;15.446;2023-02-21T07:58:59;2.22;;;2.00;;
7162;SDS011;3623;47.098;15.446;2023-02-21T08:01:26;1.50;;;1.40;;
7162;SDS011;3623;47.098;15.446;2023-02-21T08:03:53;2.45;;;2.08;;
7162;SDS011;3623;47.098;15.446;2023-02-21T08:06:20;2.25;;;2.05;;
7162;SDS011;3623;47.098;15.446;2023-02-21T08:08:47;5.15;;;2.80;;
7162;SDS011;3623;47.098;15.446;2023-02-21T08:11:14;2.30;;;2.10;;
7162;SDS011;3623;47.098;15.446;2023-02-21T08:13:41;3.97;;;3.58;;
7162;SDS011;3623;47.098;15.446;2023-02-21T08:16:10;4.18;;;3.80;;
7162;SDS011;3623;47.098;15.446;2023-02-21T08:18:37;4.75;;;3.97;;
7162;SDS011;3623;47.098;15.446;2023-02-21T08:21:06;4.68;;;3.53;;
7162;SDS011;3623;47.098;15.446;2023-02-21T08:23:34;4.55;;;2.30;;
7162;SDS011;3623;47.098;15.446;2023-02-21T08:26:01;5.28;;;2.25;;
7162;SDS011;3623;47.098;15.446;2023-02-21T08:28:29;2.85;;;2.65;;
7162;SDS011;3623;47.098;15.446;2023-02-21T08:30:56;2.35;;;2.25;;
7162;SDS011;3623;47.098;15.446;2023-02-21T08:33:24;3.30;;;2.15;;
7162;SDS011;3623;47.098;15.446;2023-02-21T08:35:51;6.18;;;3.75;;
7162;SDS011;3623;47.098;15.446;2023-02-21T08:38:19;3.53;;;2.08;;
7162;SDS011;3623;47.098;15.446;2023-02-21T08:40:46;2.28;;;1.92;;
7162;SDS011;3623;47.098;15.446;2023-02-21T08:43:13;3.42;;;3.13;;
7162;SDS011;3623;47.098;15.446;2023-02-21T08:45:40;6.82;;;2.70;;
7162;SDS011;3623;47.098;15.446;2023-02-21T08:48:07;10.23;;;3.30;;
7162;SDS011;3623;47.098;15.446;2023-02-21T08:50:35;7.22;;;3.70;;
7162;SDS011;3623;47.098;15.446;2023-02-21T08:53:03;5.18;;;3.65;;
7162;SDS011;3623;47.098;15.446;2023-02-21T08:55:30;6.13;;;3.75;;
7162;SDS011;3623;47.098;15.446;2023-02-21T08:57:57;4.47;;;4.10;;
7162;SDS011;3623;47.098;15.446;2023-02-21T09:00:24;4.60;;;3.00;;
7162;SDS011;3623;47.098;15.446;2023-02-21T09:02:53;4.55;;;2.92;;
7162;SDS011;3623;47.098;15.446;2023-02-21T09:05:21;3.30;;;3.00;;
7162;SDS011;3623;47.098;15.446;2023-02-21T09:07:52;6.43;;;3.10;;
7162;SDS011;3623;47.098;15.446;2023-02-21T09:10:23;12.65;;;3.83;;
7162;SDS011;3623;47.098;15.446;2023-02-21T09:12:51;5.07;;;4.63;;
7162;SDS011;3623;47.098;15.446;2023-02-21T09:15:18;7.70;;;3.60;;
7162;SDS011;3623;47.098;15.446;2023-02-21T09:17:46;3.37;;;3.10;;
7162;SDS011;3623;47.098;15.446;2023-02-21T09:20:16;13.73;;;4.60;;
7162;SDS011;3623;47.098;15.446;2023-02-21T09:22:44;8.50;;;4.57;;
7162;SDS011;3623;47.098;15.446;2023-02-21T09:25:13;10.30;;;4.70;;
7162;SDS011;3623;47.098;15.446;2023-02-21T09:27:43;6.53;;;3.73;;
7162;SDS011;3623;47.098;15.446;2023-02-21T09:30:11;7.10;;;4.70;;
7162;SDS011;3623;47.098;15.446;2023-02-21T09:32:40;4.20;;;3.43;;
7162;SDS011;3623;47.098;15.446;2023-02-21T09:35:07;14.07;;;4.50;;
7162;SDS011;3623;47.098;15.446;2023-02-21T09:37:38;6.60;;;3.93;;
7162;SDS011;3623;47.098;15.446;2023-02-21T09:40:06;5.33;;;3.50;;
7162;SDS011;3623;47.098;15.446;2023-02-21T09:42:43;4.30;;;3.60;;
7162;SDS011;3623;47.098;15.446;2023-02-21T09:45:13;4.60;;;4.20;;
7162;SDS011;3623;47.098;15.446;2023-02-21T09:47:41;8.23;;;4.07;;
7162;SDS011;3623;47.098;15.446;2023-02-21T09:50:12;10.97;;;3.73;;
7162;SDS011;3623;47.098;15.446;2023-02-21T09:52:41;5.03;;;4.07;;
7162;SDS011;3623;47.098;15.446;2023-02-21T09:55:12;6.27;;;4.00;;
7162;SDS011;3623;47.098;15.446;2023-02-21T09:57:47;5.63;;;3.30;;
7162;SDS011;3623;47.098;15.446;2023-02-21T10:00:17;8.80;;;3.67;;
7162;SDS011;3623;47.098;15.446;2023-02-21T10:03:04;5.00;;;3.70;;
7162;SDS011;3623;47.098;15.446;2023-02-21T10:05:45;12.07;;;4.70;;
7162;SDS011;3623;47.098;15.446;2023-02-21T10:08:18;12.73;;;5.80;;
7162;SDS011;3623;47.098;15.446;2023-02-21T10:10:57;24.60;;;6.47;;
7162;SDS011;3623;47.098;15.446;2023-02-21T10:13:34;7.73;;;4.23;;
7162;SDS011;3623;47.098;15.446;2023-02-21T10:16:07;7.90;;;4.17;;
7162;SDS011;3623;47.098;15.446;2023-02-21T10:18:39;7.20;;;3.80;;
7162;SDS011;3623;47.098;15.446;2023-02-21T10:21:13;4.13;;;3.70;;
7162;SDS011;3623;47.098;15.446;2023-02-21T10:23:47;3.87;;;3.47;;
7162;SDS011;3623;47.098;15.446;2023-02-21T10:26:22;5.27;;;3.60;;
7162;SDS011;3623;47.098;15.446;2023-02-21T10:28:51;10.10;;;4.37;;
7162;SDS011;3623;47.098;15.446;2023-02-21T10:31:20;9.07;;;3.90;;
7162;SDS011;3623;47.098;15.446;2023-02-21T10:33:55;9.73;;;4.33;;
7162;SDS011;3623;47.098;15.446;2023-02-21T10:36:24;10.50;;;5.50;;
7162;SDS011;3623;47.098;15.446;2023-02-21T10:38:53;11.63;;;4.97;;
7162;SDS011;3623;47.098;15.446;2023-02-21T10:41:26;7.10;;;5.20;;
7162;SDS011;3623;47.098;15.446;2023-02-21T10:43:57;5.60;;;4.90;;
7162;SDS011;3623;47.098;15.446;2023-02-21T10:46:29;9.07;;;5.40;;
7162;SDS011;3623;47.098;15.446;2023-02-21T10:49:08;7.57;;;5.00;;
7162;SDS011;3623;47.098;15.446;2023-02-21T10:51:45;8.30;;;4.97;;
7162;SDS011;3623;47.098;15.446;2023-02-21T10:54:16;6.70;;;5.27;;
7162;SDS011;3623;47.098;15.446;2023-02-21T10:56:47;10.60;;;4.77;;
7162;SDS011;3623;47.098;15.446;2023-02-21T10:59:20;9.90;;;5.13;;
7162;SDS011;3623;47.098;15.446;2023-02-21T11:01:50;18.23;;;5.40;;
7162;SDS011;3623;47.098;15.446;2023-02-21T11:04:22;4.83;;;4.13;;
7162;SDS011;3623;47.098;15.446;2023-02-21T11:06:53;13.13;;;5.20;;
7162;SDS011;3623;47.098;15.446;2023-02-21T11:09:23;8.83;;;5.17;;
7162;SDS011;3623;47.098;15.446;2023-02-21T11:12:01;5.10;;;3.97;;
7162;SDS011;3623;47.098;15.446;2023-02-21T11:14:42;7.50;;;3.87;;
7162;SDS011;3623;47.098;15.446;2023-02-21T11:17:14;8.40;;;2.93;;
7162;SDS011;3623;47.098;15.446;2023-02-21T11:19:45;4.37;;;3.23;;
7162;SDS011;3623;47.098;15.446;2023-02-21T11:22:18;3.73;;;2.33;;
7162;SDS011;3623;47.098;15.446;2023-02-21T11:24:51;6.00;;;3.40;;
7162;SDS011;3623;47.098;15.446;2023-02-21T11:27:25;5.60;;;2.20;;
7162;SDS011;3623;47.098;15.446;2023-02-21T11:29:54;6.77;;;2.87;;
7162;SDS011;3623;47.098;15.446;2023-02-21T11:32:23;3.37;;;2.50;;
7162;SDS011;3623;47.098;15.446;2023-02-21T11:35:00;3.70;;;2.97;;
7162;SDS011;3623;47.098;15.446;2023-02-21T11:37:29;6.40;;;2.23;;
7162;SDS011;3623;47.098;15.446;2023-02-21T11:39:57;2.60;;;2.40;;
7162;SDS011;3623;47.098;15.446;2023-02-21T11:42:28;9.30;;;2.80;;
7162;SDS011;3623;47.098;15.446;2023-02-21T11:45:10;5.37;;;2.50;;
7162;SDS011;3623;47.098;15.446;2023-02-21T11:47:44;4.73;;;2.67;;
7162;SDS011;3623;47.098;15.446;2023-02-21T11:50:18;7.60;;;3.20;;
7162;SDS011;3623;47.098;15.446;2023-02-21T11:52:51;6.13;;;2.40;;
7162;SDS011;3623;47.098;15.446;2023-02-21T11:55:25;2.67;;;2.47;;
7162;SDS011;3623;47.098;15.446;2023-02-21T11:58:00;8.17;;;2.77;;
7162;SDS011;3623;47.098;15.446;2023-02-21T12:00:41;3.47;;;2.60;;
7162;SDS011;3623;47.098;15.446;2023-02-21T12:06:22;2.60;;;2.30;;
7162;SDS011;3623;47.098;15.446;2023-02-21T12:08:57;3.43;;;2.53;;
7162;SDS011;3623;47.098;15.446;2023-02-21T12:11:43;5.03;;;2.50;;
7162;SDS011;3623;47.098;15.446;2023-02-21T12:17:21;2.70;;;2.50;;
7162;SDS011;3623;47.098;15.446;2023-02-21T12:20:07;3.50;;;2.50;;
7162;SDS011;3623;47.098;15.446;2023-02-21T12:22:53;4.00;;;2.70;;
7162;SDS011;3623;47.098;15.446;2023-02-21T12:25:43;3.70;;;2.70;;
7162;SDS011;3623;47.098;15.446;2023-02-21T12:28:24;3.10;;;2.10;;
7162;SDS011;3623;47.098;15.446;2023-02-21T12:31:02;1.73;;;1.63;;
7162;SDS011;3623;47.098;15.446;2023-02-21T12:33:45;2.10;;;1.90;;
7162;SDS011;3623;47.098;15.446;2023-02-21T12:36:39;6.00;;;2.17;;
7162;SDS011;3623;47.098;15.446;2023-02-21T12:39:22;3.87;;;1.70;;
7162;SDS011;3623;47.098;15.446;2023-02-21T12:42:10;2.83;;;2.53;;
7162;SDS011;3623;47.098;15.446;2023-02-21T12:44:48;4.70;;;1.53;;
7162;SDS011;3623;47.098;15.446;2023-02-21T12:47:22;3.33;;;1.90;;
7162;SDS011;3623;47.098;15.446;2023-02-21T12:49:57;2.40;;;2.13;;
7162;SDS011;3623;47.098;15.446;2023-02-21T12:52:27;1.73;;;1.43;;
7162;SDS011;3623;47.098;15.446;2023-02-21T12:55:00;6.30;;;1.80;;
7162;SDS011;3623;47.098;15.446;2023-02-21T12:57:31;2.70;;;1.63;;
7162;SDS011;3623;47.098;15.446;2023-02-21T13:00:11;3.13;;;1.80;;
7162;SDS011;3623;47.098;15.446;2023-02-21T13:02:44;2.67;;;1.80;;
7162;SDS011;3623;47.098;15.446;2023-02-21T13:05:24;1.53;;;1.43;;
7162;SDS011;3623;47.098;15.446;2023-02-21T13:07:58;7.90;;;2.00;;
7162;SDS011;3623;47.098;15.446;2023-02-21T13:10:30;1.70;;;1.60;;
7162;SDS011;3623;47.098;15.446;2023-02-21T13:13:02;2.63;;;1.80;;
7162;SDS011;3623;47.098;15.446;2023-02-21T13:15:35;1.70;;;1.40;;
7162;SDS011;3623;47.098;15.446;2023-02-21T13:18:06;3.53;;;2.27;;
7162;SDS011;3623;47.098;15.446;2023-02-21T13:20:38;1.60;;;1.23;;
7162;SDS011;3623;47.098;15.446;2023-02-21T13:26:21;1.77;;;1.43;;
7162;SDS011;3623;47.098;15.446;2023-02-21T13:28:57;3.07;;;1.77;;
7162;SDS011;3623;47.098;15.446;2023-02-21T13:31:25;4.87;;;2.03;;
7162;SDS011;3623;47.098;15.446;2023-02-21T13:34:01;0.70;;;0.70;;
7162;SDS011;3623;47.098;15.446;2023-02-21T13:36:38;0.80;;;0.70;;
7162;SDS011;3623;47.098;15.446;2023-02-21T13:39:10;0.57;;;0.57;;
7162;SDS011;3623;47.098;15.446;2023-02-21T13:41:40;1.27;;;0.60;;
7162;SDS011;3623;47.098;15.446;2023-02-21T13:44:10;1.77;;;0.40;;
7162;SDS011;3623;47.098;15.446;2023-02-21T13:49:44;1.07;;;0.80;;
7162;SDS011;3623;47.098;15.446;2023-02-21T13:52:49;0.70;;;0.70;;
7162;SDS011;3623;47.098;15.446;2023-02-21T14:07:43;0.47;;;0.40;;
7162;SDS011;3623;47.098;15.446;2023-02-21T14:10:38;0.60;;;0.60;;
7162;SDS011;3623;47.098;15.446;2023-02-21T14:13:19;0.60;;;0.60;;
7162;SDS011;3623;47.098;15.446;2023-02-21T14:15:49;0.63;;;0.63;;
7162;SDS011;3623;47.098;15.446;2023-02-21T14:18:24;3.03;;;0.70;;
7162;SDS011;3623;47.098;15.446;2023-02-21T14:20:54;1.07;;;0.70;;
7162;SDS011;3623;47.098;15.446;2023-02-21T14:23:31;2.40;;;0.60;;
7162;SDS011;3623;47.098;15.446;2023-02-21T14:26:05;0.70;;;0.50;;
7162;SDS011;3623;47.098;15.446;2023-02-21T14:28:48;0.60;;;0.60;;
7162;SDS011;3623;47.098;15.446;2023-02-21T14:34:12;3.40;;;0.87;;
7162;SDS011;3623;47.098;15.446;2023-02-21T14:36:40;1.20;;;1.10;;
7162;SDS011;3623;47.098;15.446;2023-02-21T14:39:09;1.00;;;0.87;;
7162;SDS011;3623;47.098;15.446;2023-02-21T14:41:43;0.60;;;0.60;;
7162;SDS011;3623;47.098;15.446;2023-02-21T14:44:23;2.40;;;0.50;;
7162;SDS011;3623;47.098;15.446;2023-02-21T14:47:04;0.70;;;0.70;;
7162;SDS011;3623;47.098;15.446;2023-02-21T14:50:04;4.63;;;0.63;;
7162;SDS011;3623;47.098;15.446;2023-02-21T14:55:51;0.50;;;0.50;;
7162;SDS011;3623;47.098;15.446;2023-02-21T14:58:58;0.70;;;0.70;;
7162;SDS011;3623;47.098;15.446;2023-02-21T15:01:54;0.50;;;0.50;;
7162;SDS011;3623;47.098;15.446;2023-02-21T15:04:29;5.30;;;0.87;;
7162;SDS011;3623;47.098;15.446;2023-02-21T15:12:38;0.60;;;0.50;;
7162;SDS011;3623;47.098;15.446;2023-02-21T15:15:10;1.10;;;1.10;;
7162;SDS011;3623;47.098;15.446;2023-02-21T15:17:41;0.70;;;0.70;;
7162;SDS011;3623;47.098;15.446;2023-02-21T15:20:13;1.10;;;1.00;;
7162;SDS011;3623;47.098;15.446;2023-02-21T15:22:41;1.30;;;1.20;;
7162;SDS011;3623;47.098;15.446;2023-02-21T15:25:18;0.67;;;0.60;;
7162;SDS011;3623;47.098;15.446;2023-02-21T15:30:54;2.50;;;0.80;;
7162;SDS011;3623;47.098;15.446;2023-02-21T15:33:31;0.87;;;0.87;;
7162;SDS011;3623;47.098;15.446;2023-02-21T15:35:59;0.60;;;0.60;;
7162;SDS011;3623;47.098;15.446;2023-02-21T15:38:30;1.27;;;0.70;;
7162;SDS011;3623;47.098;15.446;2023-02-21T15:41:00;2.07;;;0.73;;
7162;SDS011;3623;47.098;15.446;2023-02-21T15:43:34;1.30;;;0.60;;
7162;SDS011;3623;47.098;15.446;2023-02-21T15:46:12;0.73;;;0.73;;
7162;SDS011;3623;47.098;15.446;2023-02-21T15:48:43;0.60;;;0.60;;
7162;SDS011;3623;47.098;15.446;2023-02-21T15:51:11;3.10;;;0.90;;
7162;SDS011;3623;47.098;15.446;2023-02-21T15:53:38;0.77;;;0.77;;
7162;SDS011;3623;47.098;15.446;2023-02-21T15:56:16;1.33;;;1.27;;
7162;SDS011;3623;47.098;15.446;2023-02-21T15:59:03;2.20;;;0.83;;
7162;SDS011;3623;47.098;15.446;2023-02-21T16:01:38;1.13;;;1.13;;
7162;SDS011;3623;47.098;15.446;2023-02-21T16:04:12;2.77;;;1.37;;
7162;SDS011;3623;47.098;15.446;2023-02-21T16:06:45;2.40;;;0.97;;
7162;SDS011;3623;47.098;15.446;2023-02-21T16:09:21;3.70;;;1.10;;
7162;SDS011;3623;47.098;15.446;2023-02-21T16:11:52;1.17;;;1.07;;
7162;SDS011;3623;47.098;15.446;2023-02-21T16:14:24;1.70;;;1.43;;
7162;SDS011;3623;47.098;15.446;2023-02-21T16:17:04;0.80;;;0.80;;
7162;SDS011;3623;47.098;15.446;2023-02-21T16:19:33;0.93;;;0.70;;
7162;SDS011;3623;47.098;15.446;2023-02-21T16:22:11;1.10;;;1.00;;
7162;SDS011;3623;47.098;15.446;2023-02-21T16:24:39;1.03;;;0.93;;